sensor_id;sensor_type;location;lat;lon;timestamp;P1;durP1;ratioP1;P2;durP2;ratioP2
49384;SDS011;36795;45.028;38.968;2023-06-26T00:00:51;24.48;;;7.57;;
49384;SDS011;36795;45.028;38.968;2023-06-26T00:03:37;22.52;;;7.35;;
49384;SDS011;36795;45.028;38.968;2023-06-26T00:06:24;24.10;;;7.53;;
49384;SDS011;36795;45.028;38.968;2023-06-26T00:09:11;24.50;;;7.43;;
49384;SDS011;36795;45.028;38.968;2023-06-26T00:11:59;20.67;;;7.30;;
49384;SDS011;36795;45.028;38.968;2023-06-26T00:14:45;20.20;;;7.12;;
49384;SDS011;36795;45.028;38.968;2023-06-26T00:17:31;23.55;;;6.70;;
49384;SDS011;36795;45.028;38.968;2023-06-26T00:20:22;24.08;;;8.10;;
49384;SDS011;36795;45.028;38.968;2023-06-26T00:23:11;25.20;;;8.13;;
49384;SDS011;36795;45.028;38.968;2023-06-26T00:25:59;21.50;;;6.70;;
49384;SDS011;36795;45.028;38.968;2023-06-26T00:28:46;20.90;;;7.93;;
49384;SDS011;36795;45.028;38.968;2023-06-26T00:31:32;25.33;;;8.10;;
49384;SDS011;36795;45.028;38.968;2023-06-26T00:34:20;25.23;;;8.57;;
49384;SDS011;36795;45.028;38.968;2023-06-26T00:37:06;21.87;;;8.40;;
49384;SDS011;36795;45.028;38.968;2023-06-26T00:39:52;27.60;;;10.02;;
49384;SDS011;36795;45.028;38.968;2023-06-26T00:42:38;27.55;;;9.20;;
49384;SDS011;36795;45.028;38.968;2023-06-26T00:45:24;28.70;;;9.20;;
49384;SDS011;36795;45.028;38.968;2023-06-26T00:48:10;28.77;;;10.05;;
49384;SDS011;36795;45.028;38.968;2023-06-26T00:50:57;25.65;;;9.15;;
49384;SDS011;36795;45.028;38.968;2023-06-26T00:53:43;24.60;;;9.88;;
49384;SDS011;36795;45.028;38.968;2023-06-26T00:56:29;24.55;;;9.43;;
49384;SDS011;36795;45.028;38.968;2023-06-26T00:59:17;27.87;;;10.32;;
49384;SDS011;36795;45.028;38.968;2023-06-26T01:02:02;28.20;;;9.52;;
49384;SDS011;36795;45.028;38.968;2023-06-26T01:04:49;26.48;;;9.93;;
49384;SDS011;36795;45.028;38.968;2023-06-26T01:07:36;26.87;;;9.68;;
49384;SDS011;36795;45.028;38.968;2023-06-26T01:10:22;26.87;;;8.73;;
49384;SDS011;36795;45.028;38.968;2023-06-26T01:13:09;27.25;;;8.98;;
49384;SDS011;36795;45.028;38.968;2023-06-26T01:15:55;26.75;;;8.68;;
49384;SDS011;36795;45.028;38.968;2023-06-26T01:18:45;24.02;;;9.13;;
49384;SDS011;36795;45.028;38.968;2023-06-26T01:21:34;25.88;;;9.40;;
49384;SDS011;36795;45.028;38.968;2023-06-26T01:24:25;27.08;;;9.45;;
49384;SDS011;36795;45.028;38.968;2023-06-26T01:27:19;23.87;;;9.30;;
49384;SDS011;36795;45.028;38.968;2023-06-26T01:30:07;23.70;;;9.45;;
49384;SDS011;36795;45.028;38.968;2023-06-26T01:32:57;25.50;;;9.48;;
49384;SDS011;36795;45.028;38.968;2023-06-26T01:35:44;24.65;;;9.10;;
49384;SDS011;36795;45.028;38.968;2023-06-26T01:38:31;28.83;;;9.00;;
49384;SDS011;36795;45.028;38.968;2023-06-26T01:41:17;27.85;;;8.85;;
49384;SDS011;36795;45.028;38.968;2023-06-26T01:44:16;25.08;;;8.98;;
49384;SDS011;36795;45.028;38.968;2023-06-26T01:47:18;27.92;;;11.50;;
49384;SDS011;36795;45.028;38.968;2023-06-26T01:50:16;26.75;;;9.88;;
49384;SDS011;36795;45.028;38.968;2023-06-26T01:53:12;26.73;;;11.07;;
49384;SDS011;36795;45.028;38.968;2023-06-26T01:56:12;24.98;;;10.45;;
49384;SDS011;36795;45.028;38.968;2023-06-26T01:58:59;26.27;;;10.02;;
49384;SDS011;36795;45.028;38.968;2023-06-26T02:01:47;26.30;;;9.50;;
49384;SDS011;36795;45.028;38.968;2023-06-26T02:04:34;24.45;;;9.80;;
49384;SDS011;36795;45.028;38.968;2023-06-26T02:07:19;25.05;;;9.57;;
49384;SDS011;36795;45.028;38.968;2023-06-26T02:10:06;26.05;;;9.82;;
49384;SDS011;36795;45.028;38.968;2023-06-26T02:12:52;26.87;;;10.65;;
49384;SDS011;36795;45.028;38.968;2023-06-26T02:15:39;28.75;;;10.25;;
49384;SDS011;36795;45.028;38.968;2023-06-26T02:18:26;28.38;;;10.70;;
49384;SDS011;36795;45.028;38.968;2023-06-26T02:21:12;30.08;;;10.23;;
49384;SDS011;36795;45.028;38.968;2023-06-26T02:23:59;24.92;;;9.75;;
49384;SDS011;36795;45.028;38.968;2023-06-26T02:26:45;26.10;;;9.50;;
49384;SDS011;36795;45.028;38.968;2023-06-26T02:29:31;27.13;;;9.52;;
49384;SDS011;36795;45.028;38.968;2023-06-26T02:32:18;24.60;;;9.70;;
49384;SDS011;36795;45.028;38.968;2023-06-26T02:35:07;28.45;;;10.82;;
49384;SDS011;36795;45.028;38.968;2023-06-26T02:37:53;26.95;;;10.35;;
49384;SDS011;36795;45.028;38.968;2023-06-26T02:40:39;26.37;;;10.07;;
49384;SDS011;36795;45.028;38.968;2023-06-26T02:43:26;27.20;;;10.23;;
49384;SDS011;36795;45.028;38.968;2023-06-26T02:46:12;27.62;;;9.95;;
49384;SDS011;36795;45.028;38.968;2023-06-26T02:48:58;26.17;;;9.68;;
49384;SDS011;36795;45.028;38.968;2023-06-26T02:51:45;27.58;;;10.40;;
49384;SDS011;36795;45.028;38.968;2023-06-26T02:54:32;27.87;;;10.48;;
49384;SDS011;36795;45.028;38.968;2023-06-26T02:57:19;27.98;;;10.52;;
49384;SDS011;36795;45.028;38.968;2023-06-26T03:00:05;30.85;;;11.70;;
49384;SDS011;36795;45.028;38.968;2023-06-26T03:02:55;29.08;;;11.00;;
49384;SDS011;36795;45.028;38.968;2023-06-26T03:05:42;26.40;;;11.60;;
49384;SDS011;36795;45.028;38.968;2023-06-26T03:08:28;28.12;;;11.65;;
49384;SDS011;36795;45.028;38.968;2023-06-26T03:11:14;27.30;;;11.93;;
49384;SDS011;36795;45.028;38.968;2023-06-26T03:14:00;29.55;;;11.95;;
49384;SDS011;36795;45.028;38.968;2023-06-26T03:16:48;34.22;;;12.23;;
49384;SDS011;36795;45.028;38.968;2023-06-26T03:19:36;31.33;;;12.15;;
49384;SDS011;36795;45.028;38.968;2023-06-26T03:22:25;32.78;;;11.77;;
49384;SDS011;36795;45.028;38.968;2023-06-26T03:25:11;28.58;;;12.68;;
49384;SDS011;36795;45.028;38.968;2023-06-26T03:27:57;31.80;;;12.35;;
49384;SDS011;36795;45.028;38.968;2023-06-26T03:30:44;29.90;;;12.35;;
49384;SDS011;36795;45.028;38.968;2023-06-26T03:33:29;36.67;;;12.45;;
49384;SDS011;36795;45.028;38.968;2023-06-26T03:36:16;31.77;;;12.65;;
49384;SDS011;36795;45.028;38.968;2023-06-26T03:39:02;31.42;;;11.35;;
49384;SDS011;36795;45.028;38.968;2023-06-26T03:41:49;31.98;;;11.85;;
49384;SDS011;36795;45.028;38.968;2023-06-26T03:44:35;35.22;;;13.10;;
49384;SDS011;36795;45.028;38.968;2023-06-26T03:47:23;39.42;;;14.40;;
49384;SDS011;36795;45.028;38.968;2023-06-26T03:50:09;36.20;;;13.15;;
49384;SDS011;36795;45.028;38.968;2023-06-26T03:52:55;41.45;;;14.38;;
49384;SDS011;36795;45.028;38.968;2023-06-26T03:55:41;36.97;;;12.88;;
49384;SDS011;36795;45.028;38.968;2023-06-26T03:58:28;38.15;;;11.98;;
49384;SDS011;36795;45.028;38.968;2023-06-26T04:01:14;45.28;;;12.50;;
49384;SDS011;36795;45.028;38.968;2023-06-26T04:04:02;35.85;;;11.68;;
49384;SDS011;36795;45.028;38.968;2023-06-26T04:06:49;32.00;;;10.80;;
49384;SDS011;36795;45.028;38.968;2023-06-26T04:09:36;32.35;;;11.73;;
49384;SDS011;36795;45.028;38.968;2023-06-26T04:12:23;33.53;;;10.98;;
49384;SDS011;36795;45.028;38.968;2023-06-26T04:15:10;31.98;;;10.90;;
49384;SDS011;36795;45.028;38.968;2023-06-26T04:17:56;29.87;;;12.20;;
49384;SDS011;36795;45.028;38.968;2023-06-26T04:23:52;30.80;;;10.05;;
49384;SDS011;36795;45.028;38.968;2023-06-26T04:26:38;32.33;;;11.35;;
49384;SDS011;36795;45.028;38.968;2023-06-26T04:29:26;38.80;;;11.70;;
49384;SDS011;36795;45.028;38.968;2023-06-26T04:32:12;34.10;;;11.23;;
49384;SDS011;36795;45.028;38.968;2023-06-26T04:34:58;39.13;;;12.18;;
49384;SDS011;36795;45.028;38.968;2023-06-26T04:37:44;36.47;;;12.27;;
49384;SDS011;36795;45.028;38.968;2023-06-26T04:40:32;29.27;;;10.38;;
49384;SDS011;36795;45.028;38.968;2023-06-26T04:43:34;34.27;;;12.27;;
49384;SDS011;36795;45.028;38.968;2023-06-26T04:46:25;31.83;;;8.43;;
49384;SDS011;36795;45.028;38.968;2023-06-26T04:49:18;24.15;;;8.13;;
49384;SDS011;36795;45.028;38.968;2023-06-26T04:52:04;30.00;;;9.43;;
49384;SDS011;36795;45.028;38.968;2023-06-26T04:55:01;27.85;;;8.63;;
49384;SDS011;36795;45.028;38.968;2023-06-26T04:57:48;28.55;;;9.18;;
49384;SDS011;36795;45.028;38.968;2023-06-26T05:00:34;30.23;;;7.55;;
49384;SDS011;36795;45.028;38.968;2023-06-26T05:03:21;24.05;;;7.07;;
49384;SDS011;36795;45.028;38.968;2023-06-26T05:06:08;21.60;;;6.32;;
49384;SDS011;36795;45.028;38.968;2023-06-26T05:08:54;26.52;;;7.00;;
49384;SDS011;36795;45.028;38.968;2023-06-26T05:11:40;26.83;;;7.78;;
49384;SDS011;36795;45.028;38.968;2023-06-26T05:14:26;27.30;;;7.45;;
49384;SDS011;36795;45.028;38.968;2023-06-26T05:17:16;23.17;;;6.20;;
49384;SDS011;36795;45.028;38.968;2023-06-26T05:20:02;21.42;;;6.62;;
49384;SDS011;36795;45.028;38.968;2023-06-26T05:22:50;22.08;;;6.75;;
49384;SDS011;36795;45.028;38.968;2023-06-26T05:25:37;24.33;;;6.45;;
49384;SDS011;36795;45.028;38.968;2023-06-26T05:28:29;28.42;;;8.13;;
49384;SDS011;36795;45.028;38.968;2023-06-26T05:31:19;25.80;;;7.43;;
49384;SDS011;36795;45.028;38.968;2023-06-26T05:34:05;26.35;;;7.12;;
49384;SDS011;36795;45.028;38.968;2023-06-26T05:36:52;30.52;;;7.15;;
49384;SDS011;36795;45.028;38.968;2023-06-26T05:39:43;23.95;;;6.97;;
49384;SDS011;36795;45.028;38.968;2023-06-26T05:42:29;26.05;;;6.78;;
49384;SDS011;36795;45.028;38.968;2023-06-26T05:45:16;24.20;;;6.82;;
49384;SDS011;36795;45.028;38.968;2023-06-26T05:48:02;25.35;;;6.22;;
49384;SDS011;36795;45.028;38.968;2023-06-26T05:50:49;25.92;;;7.72;;
49384;SDS011;36795;45.028;38.968;2023-06-26T05:53:35;22.15;;;6.72;;
49384;SDS011;36795;45.028;38.968;2023-06-26T05:56:22;23.05;;;6.10;;
49384;SDS011;36795;45.028;38.968;2023-06-26T05:59:08;22.70;;;6.10;;
49384;SDS011;36795;45.028;38.968;2023-06-26T06:01:55;22.52;;;7.50;;
49384;SDS011;36795;45.028;38.968;2023-06-26T06:04:42;20.98;;;5.43;;
49384;SDS011;36795;45.028;38.968;2023-06-26T06:07:28;23.85;;;5.82;;
49384;SDS011;36795;45.028;38.968;2023-06-26T06:10:14;16.20;;;5.18;;
49384;SDS011;36795;45.028;38.968;2023-06-26T06:13:00;24.70;;;5.55;;
49384;SDS011;36795;45.028;38.968;2023-06-26T06:15:47;26.52;;;5.60;;
49384;SDS011;36795;45.028;38.968;2023-06-26T06:18:33;21.87;;;6.97;;
49384;SDS011;36795;45.028;38.968;2023-06-26T06:21:19;19.30;;;5.37;;
49384;SDS011;36795;45.028;38.968;2023-06-26T06:24:05;23.87;;;6.07;;
49384;SDS011;36795;45.028;38.968;2023-06-26T06:26:55;22.23;;;5.87;;
49384;SDS011;36795;45.028;38.968;2023-06-26T06:29:40;18.45;;;5.87;;
49384;SDS011;36795;45.028;38.968;2023-06-26T06:32:26;22.45;;;6.60;;
49384;SDS011;36795;45.028;38.968;2023-06-26T06:35:12;26.00;;;6.47;;
49384;SDS011;36795;45.028;38.968;2023-06-26T06:37:58;22.92;;;6.37;;
49384;SDS011;36795;45.028;38.968;2023-06-26T06:40:44;25.85;;;6.07;;
49384;SDS011;36795;45.028;38.968;2023-06-26T06:43:30;23.17;;;6.55;;
49384;SDS011;36795;45.028;38.968;2023-06-26T06:46:16;25.70;;;6.32;;
49384;SDS011;36795;45.028;38.968;2023-06-26T06:49:03;27.67;;;6.62;;
49384;SDS011;36795;45.028;38.968;2023-06-26T06:51:49;24.63;;;7.30;;
49384;SDS011;36795;45.028;38.968;2023-06-26T06:54:50;24.42;;;6.57;;
49384;SDS011;36795;45.028;38.968;2023-06-26T06:57:38;26.05;;;6.12;;
49384;SDS011;36795;45.028;38.968;2023-06-26T07:00:25;24.80;;;6.43;;
49384;SDS011;36795;45.028;38.968;2023-06-26T07:03:11;18.77;;;6.12;;
49384;SDS011;36795;45.028;38.968;2023-06-26T07:05:57;29.45;;;7.12;;
49384;SDS011;36795;45.028;38.968;2023-06-26T07:08:43;28.50;;;7.55;;
49384;SDS011;36795;45.028;38.968;2023-06-26T07:11:29;24.45;;;6.50;;
49384;SDS011;36795;45.028;38.968;2023-06-26T07:14:15;24.67;;;6.47;;
49384;SDS011;36795;45.028;38.968;2023-06-26T07:17:01;27.35;;;6.72;;
49384;SDS011;36795;45.028;38.968;2023-06-26T07:19:47;26.42;;;7.50;;
49384;SDS011;36795;45.028;38.968;2023-06-26T07:22:35;21.10;;;6.68;;
49384;SDS011;36795;45.028;38.968;2023-06-26T07:25:24;20.35;;;6.43;;
49384;SDS011;36795;45.028;38.968;2023-06-26T07:28:11;22.48;;;6.85;;
49384;SDS011;36795;45.028;38.968;2023-06-26T07:30:57;21.87;;;6.40;;
49384;SDS011;36795;45.028;38.968;2023-06-26T07:33:43;24.92;;;6.50;;
49384;SDS011;36795;45.028;38.968;2023-06-26T07:36:29;24.75;;;7.95;;
49384;SDS011;36795;45.028;38.968;2023-06-26T07:39:16;21.25;;;6.90;;
49384;SDS011;36795;45.028;38.968;2023-06-26T07:42:02;21.20;;;6.90;;
49384;SDS011;36795;45.028;38.968;2023-06-26T07:44:48;21.80;;;7.60;;
49384;SDS011;36795;45.028;38.968;2023-06-26T07:47:34;18.95;;;6.60;;
49384;SDS011;36795;45.028;38.968;2023-06-26T07:50:20;21.42;;;6.40;;
49384;SDS011;36795;45.028;38.968;2023-06-26T07:53:08;29.33;;;7.43;;
49384;SDS011;36795;45.028;38.968;2023-06-26T07:55:54;21.33;;;6.95;;
49384;SDS011;36795;45.028;38.968;2023-06-26T07:58:40;20.08;;;6.93;;
49384;SDS011;36795;45.028;38.968;2023-06-26T08:01:26;23.73;;;7.82;;
49384;SDS011;36795;45.028;38.968;2023-06-26T08:04:13;23.20;;;7.35;;
49384;SDS011;36795;45.028;38.968;2023-06-26T08:06:59;23.00;;;7.07;;
49384;SDS011;36795;45.028;38.968;2023-06-26T08:09:46;22.35;;;7.07;;
49384;SDS011;36795;45.028;38.968;2023-06-26T08:12:35;19.90;;;7.12;;
49384;SDS011;36795;45.028;38.968;2023-06-26T08:15:25;22.73;;;6.50;;
49384;SDS011;36795;45.028;38.968;2023-06-26T08:18:12;26.70;;;7.15;;
49384;SDS011;36795;45.028;38.968;2023-06-26T08:20:59;21.05;;;6.72;;
49384;SDS011;36795;45.028;38.968;2023-06-26T08:23:45;23.12;;;7.10;;
49384;SDS011;36795;45.028;38.968;2023-06-26T08:26:31;21.35;;;6.53;;
49384;SDS011;36795;45.028;38.968;2023-06-26T08:29:17;20.77;;;7.20;;
49384;SDS011;36795;45.028;38.968;2023-06-26T08:32:04;19.67;;;7.20;;
49384;SDS011;36795;45.028;38.968;2023-06-26T08:34:53;22.60;;;7.12;;
49384;SDS011;36795;45.028;38.968;2023-06-26T08:37:39;20.12;;;7.00;;
49384;SDS011;36795;45.028;38.968;2023-06-26T08:40:25;21.80;;;6.90;;
49384;SDS011;36795;45.028;38.968;2023-06-26T08:43:11;22.77;;;6.45;;
49384;SDS011;36795;45.028;38.968;2023-06-26T08:45:58;22.55;;;6.00;;
49384;SDS011;36795;45.028;38.968;2023-06-26T08:48:49;21.75;;;6.45;;
49384;SDS011;36795;45.028;38.968;2023-06-26T08:51:42;16.35;;;5.68;;
49384;SDS011;36795;45.028;38.968;2023-06-26T08:54:36;19.92;;;6.10;;
49384;SDS011;36795;45.028;38.968;2023-06-26T08:57:26;20.55;;;7.57;;
49384;SDS011;36795;45.028;38.968;2023-06-26T09:00:16;24.75;;;7.40;;
49384;SDS011;36795;45.028;38.968;2023-06-26T09:03:03;20.20;;;6.95;;
49384;SDS011;36795;45.028;38.968;2023-06-26T09:05:50;21.73;;;6.90;;
49384;SDS011;36795;45.028;38.968;2023-06-26T09:08:36;21.65;;;6.37;;
49384;SDS011;36795;45.028;38.968;2023-06-26T09:11:22;20.30;;;6.20;;
49384;SDS011;36795;45.028;38.968;2023-06-26T09:14:08;20.12;;;6.55;;
49384;SDS011;36795;45.028;38.968;2023-06-26T09:16:55;22.95;;;6.60;;
49384;SDS011;36795;45.028;38.968;2023-06-26T09:19:44;20.00;;;6.05;;
49384;SDS011;36795;45.028;38.968;2023-06-26T09:22:33;19.48;;;5.70;;
49384;SDS011;36795;45.028;38.968;2023-06-26T09:25:26;18.30;;;5.57;;
49384;SDS011;36795;45.028;38.968;2023-06-26T09:28:13;19.02;;;5.72;;
49384;SDS011;36795;45.028;38.968;2023-06-26T09:31:01;22.73;;;6.20;;
49384;SDS011;36795;45.028;38.968;2023-06-26T09:33:51;19.05;;;6.25;;
49384;SDS011;36795;45.028;38.968;2023-06-26T09:36:44;22.67;;;6.28;;
49384;SDS011;36795;45.028;38.968;2023-06-26T09:39:33;21.05;;;6.57;;
49384;SDS011;36795;45.028;38.968;2023-06-26T09:42:19;19.92;;;6.37;;
49384;SDS011;36795;45.028;38.968;2023-06-26T09:45:05;23.42;;;6.07;;
49384;SDS011;36795;45.028;38.968;2023-06-26T09:47:51;20.20;;;5.72;;
49384;SDS011;36795;45.028;38.968;2023-06-26T09:50:38;20.88;;;6.35;;
49384;SDS011;36795;45.028;38.968;2023-06-26T09:53:27;22.25;;;7.22;;
49384;SDS011;36795;45.028;38.968;2023-06-26T09:56:15;18.55;;;5.87;;
49384;SDS011;36795;45.028;38.968;2023-06-26T09:59:03;21.48;;;6.75;;
49384;SDS011;36795;45.028;38.968;2023-06-26T10:01:58;20.12;;;6.30;;
49384;SDS011;36795;45.028;38.968;2023-06-26T10:04:45;20.80;;;6.03;;
49384;SDS011;36795;45.028;38.968;2023-06-26T10:07:31;18.35;;;6.55;;
49384;SDS011;36795;45.028;38.968;2023-06-26T10:10:18;22.83;;;6.32;;
49384;SDS011;36795;45.028;38.968;2023-06-26T10:13:09;18.62;;;6.22;;
49384;SDS011;36795;45.028;38.968;2023-06-26T10:16:01;20.65;;;6.90;;
49384;SDS011;36795;45.028;38.968;2023-06-26T10:18:48;20.88;;;6.62;;
49384;SDS011;36795;45.028;38.968;2023-06-26T10:21:42;24.58;;;6.95;;
49384;SDS011;36795;45.028;38.968;2023-06-26T10:24:29;22.05;;;6.53;;
49384;SDS011;36795;45.028;38.968;2023-06-26T10:27:19;22.33;;;6.45;;
49384;SDS011;36795;45.028;38.968;2023-06-26T10:30:08;21.27;;;6.30;;
49384;SDS011;36795;45.028;38.968;2023-06-26T10:32:59;19.40;;;6.83;;
49384;SDS011;36795;45.028;38.968;2023-06-26T10:35:47;20.98;;;6.47;;
49384;SDS011;36795;45.028;38.968;2023-06-26T10:38:48;20.50;;;6.75;;
49384;SDS011;36795;45.028;38.968;2023-06-26T10:41:38;18.65;;;6.78;;
49384;SDS011;36795;45.028;38.968;2023-06-26T10:44:28;19.17;;;6.35;;
49384;SDS011;36795;45.028;38.968;2023-06-26T10:47:32;18.85;;;6.75;;
49384;SDS011;36795;45.028;38.968;2023-06-26T10:50:25;21.85;;;6.90;;
49384;SDS011;36795;45.028;38.968;2023-06-26T10:59:32;22.70;;;7.12;;
49384;SDS011;36795;45.028;38.968;2023-06-26T11:02:18;20.83;;;7.15;;
49384;SDS011;36795;45.028;38.968;2023-06-26T11:05:04;21.15;;;8.02;;
49384;SDS011;36795;45.028;38.968;2023-06-26T11:08:08;20.05;;;6.72;;
49384;SDS011;36795;45.028;38.968;2023-06-26T11:10:59;20.65;;;7.22;;
49384;SDS011;36795;45.028;38.968;2023-06-26T11:13:46;21.77;;;6.55;;
49384;SDS011;36795;45.028;38.968;2023-06-26T11:16:32;20.48;;;7.65;;
49384;SDS011;36795;45.028;38.968;2023-06-26T11:19:19;20.02;;;7.15;;
49384;SDS011;36795;45.028;38.968;2023-06-26T11:22:05;24.08;;;7.65;;
49384;SDS011;36795;45.028;38.968;2023-06-26T11:24:53;22.95;;;7.60;;
49384;SDS011;36795;45.028;38.968;2023-06-26T11:27:42;22.52;;;7.07;;
49384;SDS011;36795;45.028;38.968;2023-06-26T11:30:29;20.08;;;6.80;;
49384;SDS011;36795;45.028;38.968;2023-06-26T11:33:15;24.12;;;7.22;;
49384;SDS011;36795;45.028;38.968;2023-06-26T11:36:08;21.87;;;6.72;;
49384;SDS011;36795;45.028;38.968;2023-06-26T11:38:55;22.85;;;6.90;;
49384;SDS011;36795;45.028;38.968;2023-06-26T11:41:48;23.65;;;6.93;;
49384;SDS011;36795;45.028;38.968;2023-06-26T11:44:39;21.27;;;7.35;;
49384;SDS011;36795;45.028;38.968;2023-06-26T11:47:29;23.65;;;7.25;;
49384;SDS011;36795;45.028;38.968;2023-06-26T11:50:16;20.17;;;7.32;;
49384;SDS011;36795;45.028;38.968;2023-06-26T11:53:04;22.92;;;6.62;;
49384;SDS011;36795;45.028;38.968;2023-06-26T11:55:52;22.37;;;7.47;;
49384;SDS011;36795;45.028;38.968;2023-06-26T11:58:59;21.05;;;6.97;;
49384;SDS011;36795;45.028;38.968;2023-06-26T12:01:49;25.27;;;7.55;;
49384;SDS011;36795;45.028;38.968;2023-06-26T12:04:37;24.92;;;8.70;;
49384;SDS011;36795;45.028;38.968;2023-06-26T12:07:24;20.45;;;7.47;;
49384;SDS011;36795;45.028;38.968;2023-06-26T12:10:11;21.48;;;6.78;;
49384;SDS011;36795;45.028;38.968;2023-06-26T12:12:58;21.35;;;7.00;;
49384;SDS011;36795;45.028;38.968;2023-06-26T12:15:46;24.63;;;7.20;;
49384;SDS011;36795;45.028;38.968;2023-06-26T12:18:34;18.60;;;6.40;;
49384;SDS011;36795;45.028;38.968;2023-06-26T12:21:28;22.05;;;7.03;;
49384;SDS011;36795;45.028;38.968;2023-06-26T12:24:23;23.50;;;6.87;;
49384;SDS011;36795;45.028;38.968;2023-06-26T12:27:11;20.23;;;6.85;;
49384;SDS011;36795;45.028;38.968;2023-06-26T12:29:59;19.25;;;6.05;;
49384;SDS011;36795;45.028;38.968;2023-06-26T12:32:48;22.08;;;6.20;;
49384;SDS011;36795;45.028;38.968;2023-06-26T12:35:34;19.85;;;6.30;;
49384;SDS011;36795;45.028;38.968;2023-06-26T12:38:22;19.90;;;6.43;;
49384;SDS011;36795;45.028;38.968;2023-06-26T12:41:12;20.73;;;7.07;;
49384;SDS011;36795;45.028;38.968;2023-06-26T12:44:00;23.55;;;6.85;;
49384;SDS011;36795;45.028;38.968;2023-06-26T12:46:46;18.80;;;5.80;;
49384;SDS011;36795;45.028;38.968;2023-06-26T12:49:37;19.33;;;6.37;;
49384;SDS011;36795;45.028;38.968;2023-06-26T12:52:24;16.60;;;5.37;;
49384;SDS011;36795;45.028;38.968;2023-06-26T12:55:10;15.50;;;5.45;;
49384;SDS011;36795;45.028;38.968;2023-06-26T12:57:56;22.13;;;5.95;;
49384;SDS011;36795;45.028;38.968;2023-06-26T13:00:43;18.55;;;5.95;;
49384;SDS011;36795;45.028;38.968;2023-06-26T13:03:28;19.33;;;6.05;;
49384;SDS011;36795;45.028;38.968;2023-06-26T13:06:15;20.83;;;6.10;;
49384;SDS011;36795;45.028;38.968;2023-06-26T13:09:01;18.87;;;5.18;;
49384;SDS011;36795;45.028;38.968;2023-06-26T13:11:49;20.62;;;5.25;;
49384;SDS011;36795;45.028;38.968;2023-06-26T13:14:35;16.45;;;5.22;;
49384;SDS011;36795;45.028;38.968;2023-06-26T13:17:21;18.80;;;5.60;;
49384;SDS011;36795;45.028;38.968;2023-06-26T13:20:07;19.20;;;4.65;;
49384;SDS011;36795;45.028;38.968;2023-06-26T13:22:55;19.52;;;5.30;;
49384;SDS011;36795;45.028;38.968;2023-06-26T13:25:41;12.18;;;4.75;;
49384;SDS011;36795;45.028;38.968;2023-06-26T13:28:27;17.60;;;4.30;;
49384;SDS011;36795;45.028;38.968;2023-06-26T13:31:13;16.23;;;5.50;;
49384;SDS011;36795;45.028;38.968;2023-06-26T13:34:04;20.83;;;5.30;;
49384;SDS011;36795;45.028;38.968;2023-06-26T13:36:51;16.33;;;5.07;;
49384;SDS011;36795;45.028;38.968;2023-06-26T13:39:37;16.70;;;4.97;;
49384;SDS011;36795;45.028;38.968;2023-06-26T13:42:23;14.85;;;4.85;;
49384;SDS011;36795;45.028;38.968;2023-06-26T13:45:09;19.58;;;5.75;;
49384;SDS011;36795;45.028;38.968;2023-06-26T13:47:56;22.20;;;5.85;;
49384;SDS011;36795;45.028;38.968;2023-06-26T13:50:42;17.00;;;5.32;;
49384;SDS011;36795;45.028;38.968;2023-06-26T13:53:28;18.95;;;5.68;;
49384;SDS011;36795;45.028;38.968;2023-06-26T13:56:14;19.52;;;5.47;;
49384;SDS011;36795;45.028;38.968;2023-06-26T13:59:06;18.95;;;6.15;;
49384;SDS011;36795;45.028;38.968;2023-06-26T14:02:11;20.25;;;5.60;;
49384;SDS011;36795;45.028;38.968;2023-06-26T14:05:17;20.30;;;5.55;;
49384;SDS011;36795;45.028;38.968;2023-06-26T14:08:07;20.20;;;6.37;;
49384;SDS011;36795;45.028;38.968;2023-06-26T14:10:54;17.33;;;5.85;;
49384;SDS011;36795;45.028;38.968;2023-06-26T14:13:39;18.05;;;5.75;;
49384;SDS011;36795;45.028;38.968;2023-06-26T14:16:26;20.25;;;6.30;;
49384;SDS011;36795;45.028;38.968;2023-06-26T14:19:16;34.03;;;26.55;;
49384;SDS011;36795;45.028;38.968;2023-06-26T14:22:05;22.17;;;6.85;;
49384;SDS011;36795;45.028;38.968;2023-06-26T14:24:51;24.00;;;7.05;;
49384;SDS011;36795;45.028;38.968;2023-06-26T14:27:38;22.05;;;7.00;;
49384;SDS011;36795;45.028;38.968;2023-06-26T14:30:24;20.45;;;6.68;;
49384;SDS011;36795;45.028;38.968;2023-06-26T14:33:11;24.35;;;7.22;;
49384;SDS011;36795;45.028;38.968;2023-06-26T14:35:56;20.08;;;6.35;;
49384;SDS011;36795;45.028;38.968;2023-06-26T14:38:46;20.25;;;6.82;;
49384;SDS011;36795;45.028;38.968;2023-06-26T14:41:32;20.20;;;7.07;;
49384;SDS011;36795;45.028;38.968;2023-06-26T14:44:18;22.17;;;6.97;;
49384;SDS011;36795;45.028;38.968;2023-06-26T14:47:03;21.17;;;6.82;;
49384;SDS011;36795;45.028;38.968;2023-06-26T14:49:50;24.73;;;7.95;;
49384;SDS011;36795;45.028;38.968;2023-06-26T14:52:36;21.25;;;7.43;;
49384;SDS011;36795;45.028;38.968;2023-06-26T14:55:23;21.00;;;7.37;;
49384;SDS011;36795;45.028;38.968;2023-06-26T14:58:08;23.25;;;8.13;;
49384;SDS011;36795;45.028;38.968;2023-06-26T15:00:55;22.15;;;7.60;;
49384;SDS011;36795;45.028;38.968;2023-06-26T15:03:40;20.45;;;7.18;;
49384;SDS011;36795;45.028;38.968;2023-06-26T15:06:27;19.48;;;5.57;;
49384;SDS011;36795;45.028;38.968;2023-06-26T15:09:13;15.65;;;5.00;;
49384;SDS011;36795;45.028;38.968;2023-06-26T15:12:00;15.65;;;4.68;;
49384;SDS011;36795;45.028;38.968;2023-06-26T15:14:46;20.08;;;5.18;;
49384;SDS011;36795;45.028;38.968;2023-06-26T15:17:33;17.48;;;4.55;;
49384;SDS011;36795;45.028;38.968;2023-06-26T15:20:18;18.58;;;5.20;;
49384;SDS011;36795;45.028;38.968;2023-06-26T15:23:05;20.90;;;5.37;;
49384;SDS011;36795;45.028;38.968;2023-06-26T15:25:50;19.15;;;5.10;;
49384;SDS011;36795;45.028;38.968;2023-06-26T15:28:37;16.42;;;4.53;;
49384;SDS011;36795;45.028;38.968;2023-06-26T15:31:22;18.00;;;4.50;;
49384;SDS011;36795;45.028;38.968;2023-06-26T15:34:10;14.05;;;4.32;;
49384;SDS011;36795;45.028;38.968;2023-06-26T15:36:58;17.52;;;4.75;;
49384;SDS011;36795;45.028;38.968;2023-06-26T15:39:44;22.77;;;4.90;;
49384;SDS011;36795;45.028;38.968;2023-06-26T15:42:30;20.52;;;4.82;;
49384;SDS011;36795;45.028;38.968;2023-06-26T15:45:17;20.65;;;5.00;;
49384;SDS011;36795;45.028;38.968;2023-06-26T15:48:03;24.30;;;6.05;;
49384;SDS011;36795;45.028;38.968;2023-06-26T15:50:49;21.62;;;5.78;;
49384;SDS011;36795;45.028;38.968;2023-06-26T15:53:36;20.83;;;5.32;;
49384;SDS011;36795;45.028;38.968;2023-06-26T15:56:23;18.92;;;4.87;;
49384;SDS011;36795;45.028;38.968;2023-06-26T15:59:09;17.60;;;4.65;;
49384;SDS011;36795;45.028;38.968;2023-06-26T16:01:55;23.77;;;5.68;;
49384;SDS011;36795;45.028;38.968;2023-06-26T16:04:41;17.55;;;4.87;;
49384;SDS011;36795;45.028;38.968;2023-06-26T16:07:27;19.87;;;5.37;;
49384;SDS011;36795;45.028;38.968;2023-06-26T16:10:17;16.85;;;5.25;;
49384;SDS011;36795;45.028;38.968;2023-06-26T16:13:03;16.90;;;4.75;;
49384;SDS011;36795;45.028;38.968;2023-06-26T16:15:49;20.95;;;5.53;;
49384;SDS011;36795;45.028;38.968;2023-06-26T16:18:35;18.05;;;5.03;;
49384;SDS011;36795;45.028;38.968;2023-06-26T16:21:21;19.77;;;5.18;;
49384;SDS011;36795;45.028;38.968;2023-06-26T16:24:07;19.48;;;5.65;;
49384;SDS011;36795;45.028;38.968;2023-06-26T16:26:53;17.23;;;5.05;;